Time;durP1;ratioP1;P1;durP2;ratioP2;P2;SDS_P1;SDS_P2;PMS_P1;PMS_P2;Temp;Humidity;BMP_temperature;BMP_pressure;BME280_temperature;BME280_humidity;BME280_pressure;Samples;Min_cycle;Max_cycle;Signal;HPM_P1;HPM_P2
2022/09/18 00:02:30;0.00;0.00;0.62;0.00;0.00;0.62;1.90;1.00;;;26.30;28.80;;;;;;2245545;61;20401;-63
2022/09/18 00:05:15;0.00;0.00;0.62;0.00;0.00;0.62;3.93;1.00;;;26.30;28.70;;;;;;2245434;61;20951;-63
2022/09/18 00:08:00;0.00;0.00;0.62;0.00;0.00;0.62;4.23;1.30;;;26.30;28.70;;;;;;2245514;61;20402;-64
2022/09/18 00:10:47;0.00;0.00;0.62;0.00;0.00;0.62;2.30;1.00;;;26.30;28.70;;;;;;2245636;61;20412;-62
2022/09/18 00:13:32;0.00;0.00;0.62;0.00;0.00;0.62;2.73;1.33;;;26.20;28.70;;;;;;2245523;61;20385;-63
2022/09/18 00:16:20;0.00;0.00;0.62;0.00;0.00;0.62;3.63;1.40;;;26.20;28.70;;;;;;2245584;61;20770;-63
2022/09/18 00:19:05;0.00;0.00;0.62;0.00;0.00;0.62;3.33;1.30;;;26.20;28.70;;;;;;2245477;61;20425;-63
2022/09/18 00:21:50;0.00;0.00;0.62;0.00;0.00;0.62;2.20;1.17;;;26.20;28.70;;;;;;2245328;61;20758;-62
2022/09/18 00:24:35;0.00;0.00;0.62;0.00;0.00;0.62;4.80;1.13;;;26.20;28.70;;;;;;2245529;61;20365;-63
2022/09/18 00:27:21;0.00;0.00;0.62;0.00;0.00;0.62;2.60;1.10;;;26.10;28.60;;;;;;2245367;61;20434;-61
2022/09/18 00:30:08;0.00;0.00;0.62;0.00;0.00;0.62;3.53;1.30;;;26.10;28.50;;;;;;2245389;61;20753;-63
2022/09/18 00:32:53;0.00;0.00;0.62;0.00;0.00;0.62;2.63;1.20;;;26.00;28.40;;;;;;2245703;61;20385;-64
2022/09/18 00:35:42;0.00;0.00;0.62;0.00;0.00;0.62;3.30;1.40;;;26.00;28.40;;;;;;2245296;61;20413;-63
2022/09/18 00:38:30;0.00;0.00;0.62;0.00;0.00;0.62;2.80;1.03;;;26.00;28.50;;;;;;2245501;61;20413;-63
2022/09/18 00:41:18;0.00;0.00;0.62;0.00;0.00;0.62;2.00;0.87;;;26.00;28.50;;;;;;2247685;61;20381;-63
2022/09/18 00:44:35;0.00;0.00;0.62;0.00;0.00;0.62;2.57;1.17;;;25.90;28.40;;;;;;2247618;61;20433;-63
2022/09/18 00:47:27;0.00;0.00;0.62;0.00;0.00;0.62;2.13;1.00;;;25.90;28.50;;;;;;2245614;61;20361;-63
2022/09/18 00:50:19;0.00;0.00;0.62;0.00;0.00;0.62;1.87;1.13;;;25.80;28.50;;;;;;2245233;61;20607;-64
2022/09/18 00:53:06;0.00;0.00;0.62;0.00;0.00;0.62;4.07;1.37;;;25.80;28.40;;;;;;2245415;61;20410;-64
2022/09/18 00:55:51;0.00;0.00;0.62;0.00;0.00;0.62;3.73;1.83;;;25.80;28.40;;;;;;2245340;61;20433;-63
2022/09/18 00:58:36;0.00;0.00;0.62;0.00;0.00;0.62;2.80;1.27;;;25.80;28.40;;;;;;2245283;61;20369;-63
2022/09/18 01:01:23;0.00;0.00;0.62;0.00;0.00;0.62;2.37;1.00;;;25.80;28.40;;;;;;2245421;61;20361;-63
2022/09/18 01:04:10;0.00;0.00;0.62;0.00;0.00;0.62;3.33;1.30;;;25.70;28.40;;;;;;2245010;61;20753;-61
2022/09/18 01:07:06;0.00;0.00;0.62;0.00;0.00;0.62;3.50;1.20;;;25.70;28.60;;;;;;2245392;61;20570;-63
2022/09/18 01:10:01;0.00;0.00;0.62;0.00;0.00;0.62;2.93;1.23;;;25.70;28.30;;;;;;2245359;61;20418;-63
2022/09/18 01:12:54;0.00;0.00;0.62;0.00;0.00;0.62;4.40;1.43;;;25.60;28.20;;;;;;2245306;61;20429;-63
2022/09/18 01:15:51;0.00;0.00;0.62;0.00;0.00;0.62;2.27;1.20;;;25.60;28.30;;;;;;2245679;61;20623;-62
2022/09/18 01:18:44;0.00;0.00;0.62;0.00;0.00;0.62;2.53;1.20;;;25.50;28.20;;;;;;2245147;61;20366;-63
2022/09/18 01:21:34;0.00;0.00;0.62;0.00;0.00;0.62;8.53;1.53;;;25.50;28.20;;;;;;2245268;61;20397;-63
2022/09/18 01:24:51;0.00;0.00;0.62;0.00;0.00;0.62;2.03;1.10;;;25.50;28.70;;;;;;2245481;61;20584;-63
2022/09/18 01:27:56;0.00;0.00;0.62;0.00;0.00;0.62;2.87;1.70;;;25.40;28.20;;;;;;2245341;61;20368;-62
2022/09/18 01:30:44;0.00;0.00;0.62;0.00;0.00;0.62;2.23;0.90;;;25.40;28.30;;;;;;2245377;61;20373;-63
2022/09/18 01:33:36;0.00;0.00;0.62;0.00;0.00;0.62;3.20;1.83;;;25.30;28.30;;;;;;2245140;61;20414;-62
2022/09/18 01:36:27;0.00;0.00;0.62;0.00;0.00;0.62;3.87;1.10;;;25.30;28.30;;;;;;2244967;61;20426;-64
2022/09/18 01:39:19;0.00;0.00;0.62;0.00;0.00;0.62;2.00;0.97;;;25.30;28.40;;;;;;2244895;61;20373;-64
2022/09/18 01:42:07;0.00;0.00;0.62;0.00;0.00;0.62;1.90;0.90;;;25.30;28.40;;;;;;2244910;61;20358;-63
2022/09/18 01:44:58;0.00;0.00;0.62;0.00;0.00;0.62;3.00;0.90;;;25.30;28.90;;;;;;2244874;61;20409;-62
2022/09/18 01:47:49;0.00;0.00;0.62;0.00;0.00;0.62;2.70;1.10;;;25.20;28.40;;;;;;2244845;61;20362;-64
2022/09/18 01:50:42;0.00;0.00;0.62;0.00;0.00;0.62;1.50;0.80;;;25.20;28.40;;;;;;2244829;61;20453;-64
2022/09/18 01:53:32;0.00;0.00;0.62;0.00;0.00;0.62;3.63;1.00;;;25.20;28.40;;;;;;2244943;61;20417;-62
2022/09/18 01:56:23;0.00;0.00;0.62;0.00;0.00;0.62;2.40;1.00;;;25.20;28.40;;;;;;2245289;61;20370;-63
2022/09/18 01:59:14;0.00;0.00;0.62;0.00;0.00;0.62;3.57;1.10;;;25.20;28.40;;;;;;2245241;61;20361;-63
2022/09/18 02:02:33;0.00;0.00;0.62;0.00;0.00;0.62;5.00;1.10;;;25.20;28.50;;;;;;2245347;61;20388;-63
2022/09/18 02:05:23;0.00;0.00;0.62;0.00;0.00;0.62;2.90;1.43;;;25.10;28.40;;;;;;2247525;61;20417;-63
2022/09/18 02:08:14;0.00;0.00;0.62;0.00;0.00;0.62;2.30;0.80;;;25.10;28.40;;;;;;2247532;61;20382;-63
2022/09/18 02:11:05;0.00;0.00;0.62;0.00;0.00;0.62;2.90;1.10;;;25.10;28.40;;;;;;2247291;61;20410;-64
2022/09/18 02:13:56;0.00;0.00;0.62;0.00;0.00;0.62;3.90;1.60;;;25.10;28.40;;;;;;2247471;61;20454;-63
2022/09/18 02:16:56;0.00;0.00;0.62;0.00;0.00;0.62;4.87;1.67;;;25.10;28.40;;;;;;2247669;61;20366;-63
2022/09/18 02:19:48;0.00;0.00;0.62;0.00;0.00;0.62;2.43;1.37;;;25.00;28.30;;;;;;2247635;61;20397;-63
2022/09/18 02:22:34;0.00;0.00;0.62;0.00;0.00;0.62;2.43;1.10;;;25.00;28.40;;;;;;2247737;61;20401;-64
2022/09/18 02:25:24;0.00;0.00;0.62;0.00;0.00;0.62;2.83;1.00;;;25.00;28.40;;;;;;2247419;61;20399;-63
2022/09/18 02:28:12;0.00;0.00;0.62;0.00;0.00;0.62;2.03;0.97;;;25.00;28.40;;;;;;2247443;61;20366;-63
2022/09/18 02:30:59;0.00;0.00;0.62;0.00;0.00;0.62;1.90;0.90;;;25.00;28.40;;;;;;2247529;61;20449;-63
2022/09/18 02:33:43;0.00;0.00;0.62;0.00;0.00;0.62;2.90;1.30;;;25.00;28.50;;;;;;2245224;61;20535;-64
2022/09/18 02:36:57;0.00;0.00;0.62;0.00;0.00;0.62;4.50;1.00;;;24.90;28.30;;;;;;2244631;61;20358;-63
2022/09/18 02:39:56;0.00;0.00;0.62;0.00;0.00;0.62;2.43;1.30;;;24.90;28.30;;;;;;2245281;61;20385;-62
2022/09/18 02:42:51;0.00;0.00;0.62;0.00;0.00;0.62;2.20;1.10;;;24.90;28.30;;;;;;2245451;61;20409;-63
2022/09/18 02:45:45;0.00;0.00;0.62;0.00;0.00;0.62;2.33;1.03;;;24.90;28.30;;;;;;2246000;61;20366;-63
2022/09/18 02:48:49;0.00;0.00;0.62;0.00;0.00;0.62;3.20;1.20;;;24.90;28.30;;;;;;2247991;61;20582;-63
2022/09/18 02:51:45;0.00;0.00;0.62;0.00;0.00;0.62;2.70;0.97;;;24.80;28.20;;;;;;2248012;61;20461;-63
2022/09/18 02:54:40;0.00;0.00;0.62;0.00;0.00;0.62;2.90;1.23;;;24.70;28.10;;;;;;2247916;61;20357;-64
2022/09/18 02:57:33;0.00;0.00;0.62;0.00;0.00;0.62;3.97;1.67;;;24.70;28.10;;;;;;2247992;61;20677;-62
2022/09/18 03:00:19;0.00;0.00;0.62;0.00;0.00;0.62;2.23;1.00;;;24.70;28.20;;;;;;2248354;61;20757;-61
2022/09/18 03:03:12;0.00;0.00;0.62;0.00;0.00;0.62;3.70;1.50;;;24.60;28.60;;;;;;2245419;61;20485;-64
2022/09/18 03:06:02;0.00;0.00;0.62;0.00;0.00;0.62;3.13;1.20;;;24.60;28.20;;;;;;2245411;61;20754;-64
2022/09/18 03:08:50;0.00;0.00;0.62;0.00;0.00;0.62;3.10;1.17;;;24.60;28.20;;;;;;2245256;61;20381;-63
2022/09/18 03:11:36;0.00;0.00;0.62;0.00;0.00;0.62;2.17;1.20;;;24.50;28.10;;;;;;2245096;61;20752;-63
2022/09/18 03:14:21;0.00;0.00;0.62;0.00;0.00;0.62;2.80;1.00;;;24.50;28.20;;;;;;2245836;61;20482;-64
2022/09/18 03:17:08;0.00;0.00;0.62;0.00;0.00;0.62;1.90;1.00;;;24.50;28.20;;;;;;2245124;61;20829;-64
2022/09/18 03:19:53;0.00;0.00;0.62;0.00;0.00;0.62;3.30;1.20;;;24.40;28.20;;;;;;2245685;61;20505;-64
2022/09/18 03:22:37;0.00;0.00;0.62;0.00;0.00;0.62;2.90;1.30;;;24.40;28.20;;;;;;2245710;61;20769;-63
2022/09/18 03:25:22;0.00;0.00;0.62;0.00;0.00;0.62;3.20;1.30;;;24.40;28.20;;;;;;2245042;61;20632;-63
2022/09/18 03:28:10;0.00;0.00;0.62;0.00;0.00;0.62;2.20;1.10;;;24.40;28.30;;;;;;2245254;61;20420;-63
2022/09/18 03:30:58;0.00;0.00;0.62;0.00;0.00;0.62;5.13;1.60;;;24.40;28.30;;;;;;2245453;61;20389;-64
2022/09/18 03:33:43;0.00;0.00;0.62;0.00;0.00;0.62;2.47;1.40;;;24.30;28.20;;;;;;2245439;61;20421;-64
2022/09/18 03:36:27;0.00;0.00;0.62;0.00;0.00;0.62;2.40;1.00;;;24.30;28.30;;;;;;2245813;61;20408;-62
2022/09/18 03:39:14;0.00;0.00;0.62;0.00;0.00;0.62;3.63;1.10;;;24.30;28.30;;;;;;2245053;61;20448;-63
2022/09/18 03:41:59;0.00;0.00;0.62;0.00;0.00;0.62;5.37;0.93;;;24.20;28.30;;;;;;2245169;61;20362;-63
2022/09/18 03:44:45;0.00;0.00;0.62;0.00;0.00;0.62;3.13;1.20;;;24.20;28.30;;;;;;2245256;61;20368;-62
2022/09/18 03:47:38;0.00;0.00;0.62;0.00;0.00;0.62;3.90;0.90;;;24.20;28.30;;;;;;2245080;61;20389;-63
2022/09/18 03:50:23;0.00;0.00;0.62;0.00;0.00;0.62;3.23;1.10;;;24.20;28.30;;;;;;2245287;61;20481;-63
2022/09/18 03:53:09;0.00;0.00;0.62;0.00;0.00;0.62;3.03;1.10;;;24.20;28.40;;;;;;2244882;61;20401;-63
2022/09/18 03:56:00;0.00;0.00;0.62;0.00;0.00;0.62;4.23;1.60;;;24.20;28.40;;;;;;2245199;61;20369;-63
2022/09/18 03:59:08;0.00;0.00;0.62;0.00;0.00;0.62;2.67;1.50;;;24.10;28.30;;;;;;2245676;61;20381;-62
2022/09/18 04:02:08;0.00;0.00;0.62;0.00;0.00;0.62;2.43;1.00;;;24.10;28.30;;;;;;2244801;61;20377;-63
2022/09/18 04:05:14;0.00;0.00;0.62;0.00;0.00;0.62;4.13;1.17;;;24.10;28.90;;;;;;2245289;61;20580;-63
2022/09/18 04:08:17;0.00;0.00;0.62;0.00;0.00;0.62;4.10;1.13;;;24.10;28.40;;;;;;2245436;61;20595;-62
2022/09/18 04:11:05;0.00;0.00;0.62;0.00;0.00;0.62;3.20;1.30;;;24.10;28.40;;;;;;2245421;61;20397;-64
2022/09/18 04:13:51;0.00;0.00;0.62;0.00;0.00;0.62;3.03;1.30;;;24.00;28.40;;;;;;2247940;61;20385;-63
2022/09/18 04:16:36;0.00;0.00;0.62;0.00;0.00;0.62;3.10;1.30;;;24.00;28.50;;;;;;2247793;61;20403;-65
2022/09/18 04:19:22;0.00;0.00;0.62;0.00;0.00;0.62;2.33;1.30;;;24.00;28.50;;;;;;2245622;61;20360;-64
2022/09/18 04:22:07;0.00;0.00;0.62;0.00;0.00;0.62;1.93;0.87;;;24.00;28.40;;;;;;2247746;61;20441;-62
2022/09/18 04:24:56;0.00;0.00;0.62;0.00;0.00;0.62;3.00;1.00;;;24.00;28.50;;;;;;2245024;61;20370;-62
2022/09/18 04:27:41;0.00;0.00;0.62;0.00;0.00;0.62;2.43;0.90;;;24.00;28.40;;;;;;2245580;61;20362;-65
2022/09/18 04:30:26;0.00;0.00;0.62;0.00;0.00;0.62;1.70;0.90;;;24.00;28.50;;;;;;2247783;61;20445;-65
2022/09/18 04:33:12;0.00;0.00;0.62;0.00;0.00;0.62;2.20;1.03;;;24.00;28.50;;;;;;2247606;61;20402;-62
2022/09/18 04:35:58;0.00;0.00;0.62;0.00;0.00;0.62;2.67;1.10;;;24.00;28.50;;;;;;2247881;61;20405;-62
2022/09/18 04:38:43;0.00;0.00;0.62;0.00;0.00;0.62;2.47;1.00;;;24.00;28.50;;;;;;2247657;61;20426;-64
2022/09/18 04:41:28;0.00;0.00;0.62;0.00;0.00;0.62;3.00;1.20;;;24.00;28.50;;;;;;2247600;61;20414;-64
2022/09/18 04:44:14;0.00;0.00;0.62;0.00;0.00;0.62;1.90;1.10;;;24.00;28.50;;;;;;2247767;61;20377;-63
2022/09/18 04:47:00;0.00;0.00;0.62;0.00;0.00;0.62;2.07;0.93;;;23.90;28.50;;;;;;2247603;61;20737;-62
2022/09/18 04:49:45;0.00;0.00;0.62;0.00;0.00;0.62;2.20;0.87;;;23.90;28.40;;;;;;2247652;61;20390;-62
2022/09/18 04:52:32;0.00;0.00;0.62;0.00;0.00;0.62;4.77;1.20;;;23.90;28.50;;;;;;2244888;61;20390;-62
2022/09/18 04:55:19;0.00;0.00;0.62;0.00;0.00;0.62;2.30;1.00;;;23.90;28.50;;;;;;2247412;61;20386;-63
2022/09/18 04:58:03;0.00;0.00;0.62;0.00;0.00;0.62;2.10;1.13;;;23.90;28.50;;;;;;2245599;61;20473;-63
2022/09/18 05:00:49;0.00;0.00;0.62;0.00;0.00;0.62;4.37;1.33;;;23.90;28.50;;;;;;2244901;61;20586;-64
2022/09/18 05:03:34;0.00;0.00;0.62;0.00;0.00;0.62;2.60;1.03;;;23.90;28.50;;;;;;2247348;61;20437;-64
2022/09/18 05:06:19;0.00;0.00;0.62;0.00;0.00;0.62;3.63;1.27;;;23.90;28.40;;;;;;2245072;61;20373;-64
2022/09/18 05:09:05;0.00;0.00;0.62;0.00;0.00;0.62;2.53;1.13;;;23.90;28.40;;;;;;2244749;61;20392;-63
2022/09/18 05:11:50;0.00;0.00;0.62;0.00;0.00;0.62;2.83;1.00;;;23.90;28.50;;;;;;2244835;61;20522;-64
2022/09/18 05:14:35;0.00;0.00;0.62;0.00;0.00;0.62;2.73;1.10;;;23.80;28.40;;;;;;2244760;61;20409;-64
2022/09/18 05:17:23;0.00;0.00;0.62;0.00;0.00;0.62;2.10;1.03;;;23.80;28.50;;;;;;2245069;61;20357;-63
2022/09/18 05:20:17;0.00;0.00;0.62;0.00;0.00;0.62;2.70;1.10;;;23.80;28.50;;;;;;2245197;61;20362;-64
2022/09/18 05:23:02;0.00;0.00;0.62;0.00;0.00;0.62;2.50;0.93;;;23.80;28.50;;;;;;2244408;61;20381;-63
2022/09/18 05:25:49;0.00;0.00;0.62;0.00;0.00;0.62;2.17;1.00;;;23.80;28.50;;;;;;2245053;61;20358;-63
2022/09/18 05:28:34;0.00;0.00;0.62;0.00;0.00;0.62;5.47;1.30;;;23.70;28.50;;;;;;2245015;61;20486;-64
2022/09/18 05:31:20;0.00;0.00;0.62;0.00;0.00;0.62;2.70;1.10;;;23.70;28.50;;;;;;2244577;61;20683;-64
2022/09/18 05:34:05;0.00;0.00;0.62;0.00;0.00;0.62;2.70;1.20;;;23.70;29.00;;;;;;2244808;61;20380;-61
2022/09/18 05:36:50;0.00;0.00;0.62;0.00;0.00;0.62;2.37;1.43;;;23.70;28.50;;;;;;2244832;61;20365;-63
2022/09/18 05:39:34;0.00;0.00;0.62;0.00;0.00;0.62;2.20;1.10;;;23.70;28.60;;;;;;2244897;61;20378;-64
2022/09/18 05:42:21;0.00;0.00;0.62;0.00;0.00;0.62;3.20;1.40;;;23.70;28.60;;;;;;2245197;61;20389;-62
2022/09/18 05:45:08;0.00;0.00;0.62;0.00;0.00;0.62;2.47;1.10;;;23.60;28.60;;;;;;2244705;61;20478;-63
2022/09/18 05:47:56;0.00;0.00;0.62;0.00;0.00;0.62;2.50;1.00;;;23.60;28.60;;;;;;2244660;61;20737;-64
2022/09/18 05:50:42;0.00;0.00;0.62;0.00;0.00;0.62;3.03;1.30;;;23.60;28.60;;;;;;2244978;61;20466;-64
2022/09/18 05:53:29;0.00;0.00;0.62;0.00;0.00;0.62;2.53;1.07;;;23.60;28.60;;;;;;2244822;61;20385;-68
2022/09/18 05:56:23;0.00;0.00;0.62;0.00;0.00;0.62;2.23;1.10;;;23.60;28.70;;;;;;2244804;61;20357;-63
2022/09/18 05:59:09;0.00;0.00;0.62;0.00;0.00;0.62;2.70;1.50;;;23.60;28.70;;;;;;2245147;61;20365;-65
2022/09/18 06:01:54;0.00;0.00;0.62;0.00;0.00;0.62;3.53;1.23;;;23.60;28.70;;;;;;2244925;61;20370;-68
2022/09/18 06:05:07;0.00;0.00;0.62;0.00;0.00;0.62;2.10;0.90;;;23.60;28.80;;;;;;2245267;61;20361;-68
2022/09/18 06:07:52;0.00;0.00;0.62;0.00;0.00;0.62;2.60;1.10;;;23.60;28.80;;;;;;2247416;61;20392;-66
2022/09/18 06:10:39;0.00;0.00;0.62;0.00;0.00;0.62;3.30;1.30;;;23.60;28.80;;;;;;2247601;61;20613;-63
2022/09/18 06:13:25;0.00;0.00;0.62;0.00;0.00;0.62;2.57;1.30;;;23.50;28.80;;;;;;2247607;61;20397;-68
2022/09/18 06:16:12;0.00;0.00;0.62;0.00;0.00;0.62;1.60;0.90;;;23.50;28.70;;;;;;2248382;61;20413;-63
2022/09/18 06:19:09;0.00;0.00;0.62;0.00;0.00;0.62;5.43;1.73;;;23.50;28.80;;;;;;2248678;61;20361;-67
2022/09/18 06:21:54;0.00;0.00;0.62;0.00;0.00;0.62;4.83;1.33;;;23.50;28.80;;;;;;2247939;61;20398;-65
2022/09/18 06:24:39;0.00;0.00;0.62;0.00;0.00;0.62;2.73;1.20;;;23.50;28.90;;;;;;2248194;61;20403;-61
2022/09/18 06:27:27;0.00;0.00;0.62;0.00;0.00;0.62;4.13;1.73;;;23.40;29.40;;;;;;2245432;61;20369;-63
2022/09/18 06:30:12;0.00;0.00;0.62;0.00;0.00;0.62;4.27;1.37;;;23.40;28.90;;;;;;2248033;61;20389;-63
2022/09/18 06:33:02;0.00;0.00;0.62;0.00;0.00;0.62;3.70;1.27;;;23.40;29.00;;;;;;2247973;61;20417;-63
2022/09/18 06:35:48;0.00;0.00;0.62;0.00;0.00;0.62;5.93;1.67;;;23.40;29.00;;;;;;2248166;61;20425;-63
2022/09/18 06:38:36;0.00;0.00;0.62;0.00;0.00;0.62;2.93;1.40;;;23.30;28.90;;;;;;2248371;61;20373;-66
2022/09/18 06:41:23;0.00;0.00;0.62;0.00;0.00;0.62;4.40;1.43;;;23.30;28.90;;;;;;2248487;61;20753;-69
2022/09/18 06:44:10;0.00;0.00;0.62;0.00;0.00;0.62;4.10;1.60;;;23.30;28.90;;;;;;2247820;61;20417;-65
2022/09/18 06:47:01;0.00;0.00;0.62;0.00;0.00;0.62;3.67;1.43;;;23.30;28.90;;;;;;2248100;61;20354;-67
2022/09/18 06:49:54;0.00;0.00;0.62;0.00;0.00;0.62;3.63;1.20;;;23.30;28.90;;;;;;2245493;61;20512;-66
2022/09/18 06:52:39;0.00;0.00;0.62;0.00;0.00;0.62;2.07;1.30;;;23.30;28.90;;;;;;2247834;61;20384;-66
2022/09/18 06:55:25;0.00;0.00;0.62;0.00;0.00;0.62;1.90;0.90;;;23.30;28.90;;;;;;2245668;61;20385;-66
2022/09/18 06:58:11;0.00;0.00;0.62;0.00;0.00;0.62;3.43;0.90;;;23.30;28.90;;;;;;2248100;61;20361;-64
2022/09/18 07:00:59;0.00;0.00;0.62;0.00;0.00;0.62;2.43;0.90;;;23.30;28.90;;;;;;2248032;61;20434;-64
2022/09/18 07:03:49;0.00;0.00;0.62;0.00;0.00;0.62;1.83;1.20;;;23.40;29.00;;;;;;2476603;53;20763;-66
2022/09/18 07:06:45;0.00;0.00;0.62;0.00;0.00;0.62;2.97;1.00;;;23.40;29.00;;;;;;2244114;61;20366;-69
2022/09/18 07:09:30;0.00;0.00;0.62;0.00;0.00;0.62;2.90;1.17;;;23.40;29.00;;;;;;2244091;61;20362;-70
2022/09/18 07:12:20;0.00;0.00;0.62;0.00;0.00;0.62;2.47;1.00;;;23.50;29.00;;;;;;2244311;61;20406;-71
2022/09/18 07:15:09;0.00;0.00;0.62;0.00;0.00;0.62;3.00;1.00;;;23.50;29.00;;;;;;2244000;61;20396;-67
2022/09/18 07:17:55;0.00;0.00;0.62;0.00;0.00;0.62;1.83;1.00;;;23.60;29.10;;;;;;2244170;61;20443;-64
2022/09/18 07:20:40;0.00;0.00;0.62;0.00;0.00;0.62;1.70;0.87;;;23.60;29.10;;;;;;2241791;62;20431;-64
2022/09/18 07:23:28;0.00;0.00;0.62;0.00;0.00;0.62;2.90;1.07;;;23.60;29.10;;;;;;2241595;62;20391;-65
2022/09/18 07:26:13;0.00;0.00;0.62;0.00;0.00;0.62;2.07;0.80;;;23.70;29.20;;;;;;2244093;61;20496;-64
2022/09/18 07:28:58;0.00;0.00;0.62;0.00;0.00;0.62;2.70;1.40;;;23.70;29.20;;;;;;2241596;62;20371;-64
2022/09/18 07:31:48;0.00;0.00;0.62;0.00;0.00;0.62;2.10;0.90;;;23.70;29.20;;;;;;2243916;61;20401;-68
2022/09/18 07:34:32;0.00;0.00;0.62;0.00;0.00;0.62;2.00;1.10;;;23.70;29.20;;;;;;2244214;61;20442;-70
2022/09/18 07:37:18;0.00;0.00;0.62;0.00;0.00;0.62;1.90;1.10;;;23.80;29.30;;;;;;2244026;61;20398;-64
2022/09/18 07:40:11;0.00;0.00;0.62;0.00;0.00;0.62;1.60;0.90;;;23.80;29.30;;;;;;2244116;61;20378;-62
2022/09/18 07:43:22;0.00;0.00;0.62;0.00;0.00;0.62;2.07;1.00;;;23.90;29.30;;;;;;2243700;61;20442;-63
2022/09/18 07:46:11;0.00;0.00;0.62;0.00;0.00;0.62;3.77;1.47;;;23.90;29.40;;;;;;2243924;61;20371;-62
2022/09/18 07:48:57;0.00;0.00;0.62;0.00;0.00;0.62;2.17;1.10;;;23.90;29.40;;;;;;2244033;61;20362;-63
2022/09/18 07:51:46;0.00;0.00;0.62;0.00;0.00;0.62;2.10;0.90;;;24.00;29.40;;;;;;2243578;61;20472;-62
2022/09/18 07:54:33;0.00;0.00;0.62;0.00;0.00;0.62;2.37;1.20;;;24.00;29.40;;;;;;2241199;62;20358;-64
2022/09/18 07:57:23;0.00;0.00;0.62;0.00;0.00;0.62;4.63;1.70;;;24.00;29.40;;;;;;2243819;61;20403;-63
2022/09/18 08:00:26;0.00;0.00;0.62;0.00;0.00;0.62;1.70;1.00;;;24.10;29.50;;;;;;2243974;61;20718;-62
2022/09/18 08:03:13;0.00;0.00;0.62;0.00;0.00;0.62;2.47;1.07;;;24.10;29.50;;;;;;2247426;61;20657;-61
2022/09/18 08:06:12;0.00;0.00;0.62;0.00;0.00;0.62;1.90;1.10;;;24.10;29.40;;;;;;2245137;61;20398;-62
2022/09/18 08:09:14;0.00;0.00;0.62;0.00;0.00;0.62;2.57;1.40;;;24.10;29.30;;;;;;2245134;61;20357;-64
2022/09/18 08:12:26;0.00;0.00;0.62;0.00;0.00;0.62;2.63;1.43;;;24.20;29.30;;;;;;2245567;61;20737;-62
2022/09/18 08:15:26;0.00;0.00;0.62;0.00;0.00;0.62;2.23;1.50;;;24.20;29.30;;;;;;2245144;61;20728;-63
2022/09/18 08:18:24;0.00;0.00;0.62;0.00;0.00;0.62;2.60;1.50;;;24.20;29.30;;;;;;2245255;61;20388;-62
2022/09/18 08:21:21;0.00;0.00;0.62;0.00;0.00;0.62;2.47;1.37;;;24.20;29.30;;;;;;2245041;61;20349;-65
2022/09/18 08:24:09;0.00;0.00;0.62;0.00;0.00;0.62;2.10;1.37;;;24.30;29.30;;;;;;2244768;61;20377;-63
2022/09/18 08:27:01;0.00;0.00;0.62;0.00;0.00;0.62;2.07;1.33;;;24.30;29.30;;;;;;2245342;61;20718;-63
2022/09/18 08:29:48;0.00;0.00;0.62;0.00;0.00;0.62;2.90;1.40;;;24.30;29.30;;;;;;2245254;61;20382;-64
2022/09/18 08:32:33;0.00;0.00;0.62;0.00;0.00;0.62;2.20;1.20;;;24.40;29.30;;;;;;2245667;61;20381;-63
2022/09/18 08:35:18;0.00;0.00;0.62;0.00;0.00;0.62;1.77;1.10;;;24.40;29.30;;;;;;2245440;61;20361;-63
2022/09/18 08:38:05;0.00;0.00;0.62;0.00;0.00;0.62;1.83;1.13;;;24.40;29.30;;;;;;2245035;61;20375;-63
2022/09/18 08:41:24;0.00;0.00;0.62;0.00;0.00;0.62;1.90;1.20;;;24.40;29.30;;;;;;2245151;61;20373;-65
2022/09/18 08:44:16;0.00;0.00;0.62;0.00;0.00;0.62;2.23;1.30;;;24.50;29.30;;;;;;2244984;61;20377;-64
2022/09/18 08:47:08;0.00;0.00;0.62;0.00;0.00;0.62;1.80;1.10;;;24.50;29.30;;;;;;2245433;61;20361;-64
2022/09/18 08:49:59;0.00;0.00;0.62;0.00;0.00;0.62;1.93;1.27;;;24.50;29.30;;;;;;2244840;61;20365;-65
2022/09/18 08:52:49;0.00;0.00;0.62;0.00;0.00;0.62;2.03;1.20;;;24.50;29.30;;;;;;2242142;61;20656;-62
2022/09/18 08:55:50;0.00;0.00;0.62;0.00;0.00;0.62;2.13;1.50;;;24.50;29.20;;;;;;2245170;61;20365;-63
2022/09/18 08:58:51;0.00;0.00;0.62;0.00;0.00;0.62;2.20;1.23;;;24.50;29.20;;;;;;2244921;61;20362;-63
2022/09/18 09:01:45;0.00;0.00;0.62;0.00;0.00;0.62;2.07;1.10;;;24.60;29.30;;;;;;2245331;61;20378;-65
2022/09/18 09:04:34;0.00;0.00;0.62;0.00;0.00;0.62;2.60;1.60;;;24.60;29.20;;;;;;2247421;61;20765;-63
2022/09/18 09:07:39;0.00;0.00;0.62;0.00;0.00;0.62;3.20;1.47;;;24.60;29.20;;;;;;2245438;61;20590;-63
2022/09/18 09:10:40;0.00;0.00;0.62;0.00;0.00;0.62;2.53;1.30;;;24.60;29.20;;;;;;2245158;61;20416;-63
2022/09/18 09:13:55;0.00;0.00;0.62;0.00;0.00;0.62;2.50;1.80;;;24.70;29.20;;;;;;2247669;61;20385;-65
2022/09/18 09:16:43;0.00;0.00;0.62;0.00;0.00;0.62;2.70;1.50;;;24.70;29.20;;;;;;2248049;61;20481;-64
2022/09/18 09:19:39;0.00;0.00;0.62;0.00;0.00;0.62;2.80;1.80;;;24.70;29.20;;;;;;2245115;61;20765;-64
2022/09/18 09:22:37;0.00;0.00;0.62;0.00;0.00;0.62;2.60;1.50;;;24.70;29.20;;;;;;2247426;61;20505;-62
2022/09/18 09:25:32;0.00;0.00;0.62;0.00;0.00;0.62;2.40;1.40;;;24.70;29.10;;;;;;2247887;61;20387;-62
2022/09/18 09:28:52;0.00;0.00;0.62;0.00;0.00;0.62;2.40;1.70;;;24.70;29.10;;;;;;2245019;61;20580;-64
2022/09/18 09:32:03;0.00;0.00;0.62;0.00;0.00;0.62;2.00;1.40;;;24.70;29.10;;;;;;2245017;61;20773;-65
2022/09/18 09:35:26;0.00;0.00;0.62;0.00;0.00;0.62;3.07;1.80;;;24.80;29.20;;;;;;2247485;61;20779;-62
2022/09/18 09:38:37;0.00;0.00;0.62;0.00;0.00;0.62;3.37;1.90;;;24.80;29.10;;;;;;2245021;61;20745;-62
2022/09/18 09:41:30;0.00;0.00;0.62;0.00;0.00;0.62;3.00;1.83;;;24.80;29.10;;;;;;2245075;61;20766;-65
2022/09/18 09:44:30;0.00;0.00;0.62;0.00;0.00;0.62;2.30;1.70;;;24.80;29.10;;;;;;2247444;61;20389;-63
2022/09/18 09:47:29;0.00;0.00;0.62;0.00;0.00;0.62;2.73;1.97;;;24.80;29.10;;;;;;2245043;61;20357;-64
2022/09/18 09:50:38;0.00;0.00;0.62;0.00;0.00;0.62;3.03;1.90;;;24.90;29.20;;;;;;2245550;61;20365;-63
2022/09/18 09:53:25;0.00;0.00;0.62;0.00;0.00;0.62;3.37;1.60;;;24.90;29.10;;;;;;2246031;61;20428;-62
2022/09/18 09:56:20;0.00;0.00;0.62;0.00;0.00;0.62;2.27;1.77;;;24.90;29.10;;;;;;2245525;61;20401;-61
2022/09/18 09:59:16;0.00;0.00;0.62;0.00;0.00;0.62;3.50;2.40;;;24.90;29.10;;;;;;2248319;61;20373;-64
2022/09/18 10:02:33;0.00;0.00;0.62;0.00;0.00;0.62;2.87;2.00;;;24.90;29.10;;;;;;2248162;61;20728;-64
2022/09/18 10:05:28;0.00;0.00;0.62;0.00;0.00;0.62;3.30;2.00;;;24.90;29.00;;;;;;2245479;61;20353;-62
2022/09/18 10:08:22;0.00;0.00;0.62;0.00;0.00;0.62;3.30;2.23;;;24.90;29.00;;;;;;2245454;61;20361;-64
2022/09/18 10:11:10;0.00;0.00;0.62;0.00;0.00;0.62;3.37;2.40;;;25.00;29.10;;;;;;2245291;61;20609;-65
2022/09/18 10:14:04;0.00;0.00;0.62;0.00;0.00;0.62;3.63;2.83;;;25.00;29.00;;;;;;2245417;61;20416;-64
2022/09/18 10:16:53;0.00;0.00;0.62;0.00;0.00;0.62;5.10;3.00;;;25.00;29.00;;;;;;2245602;61;20634;-64
2022/09/18 10:19:41;0.00;0.00;0.62;0.00;0.00;0.62;3.30;2.97;;;25.00;29.00;;;;;;2245491;61;20385;-64
2022/09/18 10:22:28;0.00;0.00;0.62;0.00;0.00;0.62;4.97;3.13;;;25.00;29.00;;;;;;2245237;61;20581;-65
2022/09/18 10:25:25;0.00;0.00;0.62;0.00;0.00;0.62;4.40;3.43;;;25.00;29.00;;;;;;2245533;61;20373;-64
2022/09/18 10:28:12;0.00;0.00;0.62;0.00;0.00;0.62;4.37;3.40;;;25.00;29.00;;;;;;2245582;61;20587;-63
2022/09/18 10:31:00;0.00;0.00;0.62;0.00;0.00;0.62;6.60;4.17;;;25.00;29.00;;;;;;2245783;61;20384;-65
2022/09/18 10:33:50;0.00;0.00;0.62;0.00;0.00;0.62;4.47;3.30;;;25.10;29.00;;;;;;2245271;61;20748;-66
2022/09/18 10:36:43;0.00;0.00;0.62;0.00;0.00;0.62;5.57;3.60;;;25.00;29.00;;;;;;2245372;61;20385;-64
2022/09/18 10:39:35;0.00;0.00;0.62;0.00;0.00;0.62;6.03;4.00;;;25.10;29.00;;;;;;2245436;61;20753;-63
2022/09/18 10:42:27;0.00;0.00;0.62;0.00;0.00;0.62;5.70;4.10;;;25.10;29.00;;;;;;2245113;61;20381;-65
2022/09/18 10:45:22;0.00;0.00;0.62;0.00;0.00;0.62;5.20;3.70;;;25.10;29.00;;;;;;2245463;61;20397;-64
2022/09/18 10:48:14;0.00;0.00;0.62;0.00;0.00;0.62;4.53;3.03;;;25.10;29.00;;;;;;2245058;61;20382;-64
2022/09/18 10:51:01;0.00;0.00;0.62;0.00;0.00;0.62;5.00;3.90;;;25.10;29.00;;;;;;2245181;61;20425;-64
2022/09/18 10:54:14;0.00;0.00;0.62;0.00;0.00;0.62;4.83;4.00;;;25.10;28.90;;;;;;2243145;61;20425;-64
2022/09/18 10:57:27;0.00;0.00;0.62;0.00;0.00;0.62;5.67;3.90;;;25.20;28.90;;;;;;2245308;61;20357;-65
2022/09/18 11:00:36;0.00;0.00;0.62;0.00;0.00;0.62;4.37;3.33;;;25.20;28.90;;;;;;2245496;61;20381;-61
2022/09/18 11:03:39;0.00;0.00;0.62;0.00;0.00;0.62;5.10;3.90;;;25.20;28.90;;;;;;2245115;61;20393;-63
2022/09/18 11:06:27;0.00;0.00;0.62;0.00;0.00;0.62;5.00;3.80;;;25.20;28.90;;;;;;2248124;61;20467;-65
2022/09/18 11:09:20;0.00;0.00;0.62;0.00;0.00;0.62;4.40;3.33;;;25.20;28.90;;;;;;2248193;61;20402;-63
2022/09/18 11:12:15;0.00;0.00;0.62;0.00;0.00;0.62;4.80;3.80;;;25.20;28.90;;;;;;2247885;61;20413;-65
2022/09/18 11:15:06;0.00;0.00;0.62;0.00;0.00;0.62;4.57;3.90;;;25.20;29.40;;;;;;2245203;61;20377;-65
2022/09/18 11:17:54;0.00;0.00;0.62;0.00;0.00;0.62;5.70;3.77;;;25.20;28.80;;;;;;2244969;61;20491;-64